Terminal Aerodrome Forecast
Issued by NWS

Home | Current Version | Previous Version | Text Only | Print | Product List | Glossary On
Versions: 1 2 3 4 5 6 7 8 9 10 11 12
000
FTUS43 KDVN 090500
TAFCID
TAF
KCID 090520Z 0906/1006 29005KT P6SM SKC
     FM091600 32009KT P6SM SCT060
     FM100000 32004KT P6SM SKC=

USA.gov is the U.S. government's official web portal to all federal, state and local government web resources and services.